»·PEaware :: N82LD KMYR-KEYW

N82LD :: KMYR-KEYW

FLIGHT INFORMATION

Flight Status: Arrived
Operator: Privately registered:
United States
More flights under this callsign
Pilot: Drew L. (13237)
Aircraft: CESSNA 550 CITATION 2/S2/BRAVO
(C550)
More flights by this aircraft type
Origin: KMYR Myrtle Beach Intl
United States
Destination: KEYW Key West Intl
United States
More flights between these airports :: More routes between these airports
Route: FLO CAE FISHO Q75 ENEME Q65 MGNTY Q81 TUNSL
File this flight plan on PilotEdge
Remarks: RMK / SIMBRIEF
Altitude:
(Current/Filed)
32,000ft
Speed:
(Current/Filed)
378kts
Departed: 24-Sep-20 11:06 AM
Arrived: 24-Sep-20 12:59 PM
Distance/Time
Traveled:
567nm/1:53
Distance/Time
To Go:
Arrived

Flight Plot

Page will automatically refresh every two minutes.

Flight plan parsing failed; only flown route is shown


Map Options




Map Legend


Flown Route
Filed Route
Departure Airport
Arrival Airport
Navaid (VOR, NDB)
Fix

Horizontal Profiles

Position Reports

Time Latitude Longitude Heading Altitude Ground
Speed
24-Sep-20 10:50 33.674226 -78.932440 166 21ft 0kts
24-Sep-20 10:51 33.674226 -78.932440 166 21ft 0kts
24-Sep-20 10:57 33.674128 -78.931835 77 21ft 9kts
24-Sep-20 10:58 33.677493 -78.931393 348 21ft 19kts
24-Sep-20 10:59 33.682826 -78.932714 348 21ft 20kts
24-Sep-20 11:00 33.687720 -78.933958 347 20ft 20kts
24-Sep-20 11:01 33.691900 -78.934253 65 18ft 11kts
24-Sep-20 11:02 33.692271 -78.932315 79 18ft 2kts
24-Sep-20 11:03 33.691987 -78.931378 167 18ft 0kts
24-Sep-20 11:04 33.691980 -78.931376 167 18ft 0kts
24-Sep-20 11:05 33.673873 -78.927256 169 899ft 170kts
24-Sep-20 11:06 33.618221 -78.937673 216 5533ft 230kts
24-Sep-20 11:07 33.577709 -78.996591 231 10272ft 238kts
24-Sep-20 11:08 33.536927 -79.060195 232 14192ft 248kts
24-Sep-20 11:09 33.493821 -79.126661 232 17526ft 259kts
24-Sep-20 11:10 33.448731 -79.195954 232 20411ft 269kts
24-Sep-20 11:11 33.401416 -79.268606 233 22944ft 279kts
24-Sep-20 11:12 33.352741 -79.343198 233 25114ft 288kts
24-Sep-20 11:13 33.302405 -79.420172 234 26966ft 296kts
24-Sep-20 11:14 33.250504 -79.499380 234 28551ft 303kts
24-Sep-20 11:15 33.197346 -79.580295 235 29896ft 310kts
24-Sep-20 11:16 33.143034 -79.662774 234 31043ft 316kts
24-Sep-20 11:17 33.087782 -79.746495 234 31988ft 324kts
24-Sep-20 11:18 33.030577 -79.833007 233 32106ft 340kts
24-Sep-20 11:19 32.970758 -79.923210 233 32106ft 353kts
24-Sep-20 11:20 32.909047 -80.015691 230 32106ft 361kts
24-Sep-20 11:21 32.827117 -80.087666 215 32109ft 370kts
24-Sep-20 11:22 32.739685 -80.152363 214 32108ft 373kts
24-Sep-20 11:23 32.651215 -80.217491 214 32105ft 374kts
24-Sep-20 11:24 32.562532 -80.282659 214 32102ft 374kts
24-Sep-20 11:25 32.474049 -80.347534 214 32099ft 374kts
24-Sep-20 11:26 32.385258 -80.412481 214 32096ft 374kts
24-Sep-20 11:27 32.296588 -80.477190 214 32097ft 374kts
24-Sep-20 11:28 32.208140 -80.541586 214 32111ft 373kts
24-Sep-20 11:29 32.119249 -80.606154 214 32121ft 373kts
24-Sep-20 11:30 32.030596 -80.670231 214 32123ft 374kts
24-Sep-20 11:31 31.941976 -80.734249 214 32107ft 375kts
24-Sep-20 11:32 31.852869 -80.798733 214 32094ft 375kts
24-Sep-20 11:33 31.763657 -80.862956 214 32079ft 376kts
24-Sep-20 11:34 31.673815 -80.927459 214 32073ft 375kts
24-Sep-20 11:35 31.584121 -80.991708 215 32072ft 374kts
24-Sep-20 11:36 31.494868 -81.055497 215 32072ft 371kts
24-Sep-20 11:37 31.405794 -81.119015 215 32076ft 369kts
24-Sep-20 11:38 31.323314 -81.188678 234 32076ft 359kts
24-Sep-20 11:39 31.272054 -81.288682 242 32074ft 356kts
24-Sep-20 11:40 31.222990 -81.390069 242 32073ft 356kts
24-Sep-20 11:41 31.173633 -81.490855 242 32071ft 355kts
24-Sep-20 11:42 31.124263 -81.591218 242 32069ft 355kts
24-Sep-20 11:43 31.074776 -81.691540 241 32077ft 355kts
24-Sep-20 11:44 31.024895 -81.792393 241 32073ft 356kts
24-Sep-20 11:45 30.975199 -81.892617 241 32061ft 357kts
24-Sep-20 11:46 30.925241 -81.993110 241 32048ft 358kts
24-Sep-20 11:47 30.875129 -82.093648 240 32045ft 359kts
24-Sep-20 11:48 30.824859 -82.194236 240 32045ft 360kts
24-Sep-20 11:49 30.774432 -82.294875 240 32043ft 360kts
24-Sep-20 11:50 30.722332 -82.394274 231 32040ft 362kts
24-Sep-20 11:51 30.632357 -82.445737 192 32042ft 380kts
24-Sep-20 11:52 30.527110 -82.460402 192 32040ft 380kts
24-Sep-20 11:53 30.422261 -82.474532 192 32039ft 380kts
24-Sep-20 11:54 30.317120 -82.488853 192 32039ft 380kts
24-Sep-20 11:55 30.223329 -82.501630 192 32038ft 380kts
24-Sep-20 11:56 30.106232 -82.508955 186 32038ft 383kts
24-Sep-20 11:58 29.999281 -82.511049 186 32040ft 383kts
24-Sep-20 11:59 29.892769 -82.513334 186 32048ft 383kts
24-Sep-20 12:00 29.786393 -82.515665 186 32069ft 383kts
24-Sep-20 12:01 29.679863 -82.518006 186 32076ft 383kts
24-Sep-20 12:02 29.573230 -82.520344 186 32076ft 384kts
24-Sep-20 12:03 29.466694 -82.522676 186 32076ft 384kts
24-Sep-20 12:04 29.360192 -82.525002 186 32071ft 384kts
24-Sep-20 12:05 29.254106 -82.530415 194 32063ft 379kts
24-Sep-20 12:06 29.153439 -82.561228 201 32040ft 375kts
24-Sep-20 12:07 29.053114 -82.594710 200 32028ft 375kts
24-Sep-20 12:08 28.952619 -82.627996 200 32029ft 378kts
24-Sep-20 12:09 28.851286 -82.661426 199 32038ft 381kts
24-Sep-20 12:10 28.749058 -82.695078 199 32030ft 383kts
24-Sep-20 12:11 28.646821 -82.728663 199 32030ft 384kts
24-Sep-20 12:12 28.543889 -82.762409 199 32033ft 384kts
24-Sep-20 12:13 28.441145 -82.796027 199 32033ft 384kts
24-Sep-20 12:14 28.338461 -82.829559 199 32021ft 384kts
24-Sep-20 12:14 28.253079 -82.857387 199 32017ft 384kts
24-Sep-20 12:15 28.150278 -82.890833 199 32016ft 383kts
24-Sep-20 12:17 28.026976 -82.903168 174 32016ft 395kts
24-Sep-20 12:17 27.936976 -82.883921 173 32017ft 395kts
24-Sep-20 12:18 27.828847 -82.860400 173 32025ft 396kts
24-Sep-20 12:19 27.721950 -82.830025 164 32021ft 401kts
24-Sep-20 12:21 27.599700 -82.779084 163 32018ft 402kts
24-Sep-20 12:21 27.512112 -82.742623 163 32018ft 402kts
24-Sep-20 12:22 27.406604 -82.698870 164 32018ft 402kts
24-Sep-20 12:23 27.301293 -82.655304 164 32018ft 402kts
24-Sep-20 12:24 27.195825 -82.611761 164 32018ft 402kts
24-Sep-20 12:25 27.092723 -82.561209 153 32018ft 408kts
24-Sep-20 12:26 26.995226 -82.494924 152 32018ft 408kts
24-Sep-20 12:27 26.897478 -82.428349 151 32018ft 407kts
24-Sep-20 12:28 26.800251 -82.362427 151 32020ft 407kts
24-Sep-20 12:29 26.703564 -82.297016 151 32016ft 406kts
24-Sep-20 12:30 26.606754 -82.231655 151 32011ft 405kts
24-Sep-20 12:31 26.510074 -82.166515 151 32007ft 405kts
24-Sep-20 12:32 26.413397 -82.101506 151 32007ft 405kts
24-Sep-20 12:33 26.316416 -82.036422 151 32011ft 405kts
24-Sep-20 12:34 26.219369 -81.971423 151 32016ft 405kts
24-Sep-20 12:35 26.122229 -81.906488 151 32016ft 405kts
24-Sep-20 12:36 26.025001 -81.841624 151 32018ft 405kts
24-Sep-20 12:37 25.924872 -81.785305 179 32023ft 395kts
24-Sep-20 12:38 25.815950 -81.799339 189 32027ft 393kts
24-Sep-20 12:39 25.707686 -81.815419 189 31560ft 381kts
24-Sep-20 12:40 25.607131 -81.829940 189 29691ft 354kts
24-Sep-20 12:41 25.511511 -81.843740 189 27388ft 342kts
24-Sep-20 12:42 25.418562 -81.857155 188 25084ft 334kts
24-Sep-20 12:43 25.327404 -81.870288 188 22780ft 329kts
24-Sep-20 12:44 25.237170 -81.883264 188 20464ft 324kts
24-Sep-20 12:45 25.148064 -81.896058 187 18139ft 319kts
24-Sep-20 12:46 25.060274 -81.908645 187 15679ft 318kts
24-Sep-20 12:47 24.972559 -81.921191 187 13150ft 315kts
24-Sep-20 12:48 24.887479 -81.933357 186 10644ft 295kts
24-Sep-20 12:49 24.810528 -81.944347 186 8127ft 268kts
24-Sep-20 12:50 24.737461 -81.954754 185 5615ft 263kts
24-Sep-20 12:51 24.665084 -81.965057 186 3164ft 259kts
24-Sep-20 12:52 24.596355 -81.968290 178 2359ft 235kts
24-Sep-20 12:53 24.554186 -81.936796 89 1538ft 183kts
24-Sep-20 12:54 24.554935 -81.887180 88 1535ft 143kts
24-Sep-20 12:55 24.555258 -81.844567 87 1523ft 128kts
24-Sep-20 12:56 24.555618 -81.809956 87 802ft 97kts
24-Sep-20 12:57 24.555904 -81.781991 87 315ft 88kts
24-Sep-20 12:58 24.556143 -81.759537 88 5ft 36kts
24-Sep-20 12:59 24.555113 -81.756786 185 5ft 5kts
24-Sep-20 13:00 24.554613 -81.757200 92 5ft 4kts
24-Sep-20 13:01 24.554795 -81.756529 0 5ft 0kts
24-Sep-20 13:02 24.554795 -81.756529 0 5ft 0kts

Navigation Log

Ident Type
Flight plan parsing failed, navigation log unavailable